createdAt,value
2023-11-30T00:00:30.826Z,7.37
2023-11-30T00:02:59.074Z,7.63
2023-11-30T00:05:25.893Z,7.10
2023-11-30T00:07:54.210Z,7.10
2023-11-30T00:10:21.066Z,7.67
2023-11-30T00:12:48.876Z,7.50
2023-11-30T00:15:16.750Z,7.00
2023-11-30T00:17:44.886Z,7.10
2023-11-30T00:20:13.364Z,7.13
2023-11-30T00:22:42.959Z,6.80
2023-11-30T00:25:12.365Z,6.57
2023-11-30T00:27:40.380Z,6.93
2023-11-30T00:30:08.110Z,6.67
2023-11-30T00:32:38.416Z,7.03
2023-11-30T00:35:05.750Z,6.93
2023-11-30T00:37:36.686Z,6.77
2023-11-30T00:40:07.819Z,7.07
2023-11-30T00:42:36.209Z,6.47
2023-11-30T00:45:06.758Z,7.90
2023-11-30T00:47:34.791Z,7.60
2023-11-30T00:50:02.884Z,7.30
2023-11-30T00:52:32.098Z,6.97
2023-11-30T00:55:00.352Z,6.90
2023-11-30T00:57:27.181Z,6.90
2023-11-30T00:59:56.100Z,7.03
2023-11-30T01:02:22.940Z,6.80
2023-11-30T01:04:50.996Z,6.40
2023-11-30T01:07:17.800Z,7.93
2023-11-30T01:09:47.072Z,6.93
2023-11-30T01:12:14.122Z,7.17
2023-11-30T01:14:42.665Z,7.07
2023-11-30T01:17:11.494Z,6.57
2023-11-30T01:19:40.025Z,7.17
2023-11-30T01:22:08.143Z,7.67
2023-11-30T01:24:37.611Z,8.03
2023-11-30T01:27:05.929Z,7.90
2023-11-30T01:29:33.521Z,7.87
2023-11-30T01:32:01.337Z,8.13
2023-11-30T01:34:29.365Z,7.33
2023-11-30T01:36:57.504Z,7.70
2023-11-30T01:39:34.472Z,8.13
2023-11-30T01:42:05.607Z,7.07
2023-11-30T01:44:36.480Z,7.70
2023-11-30T01:47:08.045Z,7.40
2023-11-30T01:49:35.915Z,7.37
2023-11-30T01:52:04.578Z,7.23
2023-11-30T01:54:32.615Z,6.57
2023-11-30T01:57:00.912Z,6.20
2023-11-30T01:59:29.362Z,5.77
2023-11-30T02:01:58.229Z,6.27
2023-11-30T02:04:29.002Z,6.50
2023-11-30T02:09:27.752Z,5.70
2023-11-30T02:11:56.462Z,6.30
2023-11-30T02:14:25.093Z,6.37
2023-11-30T02:16:53.168Z,6.40
2023-11-30T02:19:21.031Z,5.90
2023-11-30T02:21:53.225Z,6.07
2023-11-30T02:24:20.052Z,6.57
2023-11-30T02:26:47.959Z,6.60
2023-11-30T02:29:16.932Z,7.03
2023-11-30T02:31:45.065Z,6.57
2023-11-30T02:34:11.888Z,6.50
2023-11-30T02:36:42.743Z,6.53
2023-11-30T02:41:37.526Z,7.53
2023-11-30T02:44:05.432Z,7.00
2023-11-30T02:46:34.617Z,7.40
2023-11-30T02:49:02.501Z,7.17
2023-11-30T02:51:32.838Z,6.83
2023-11-30T02:54:00.985Z,7.50
2023-11-30T02:56:29.284Z,7.93
2023-11-30T02:58:57.510Z,8.07
2023-11-30T03:01:27.830Z,13.23
2023-11-30T03:03:56.425Z,10.88
2023-11-30T03:06:24.472Z,14.50
2023-11-30T03:08:52.779Z,9.73
2023-11-30T03:11:19.587Z,10.17
2023-11-30T03:13:49.852Z,8.67
2023-11-30T03:16:24.860Z,8.20
2023-11-30T03:19:06.201Z,7.27
2023-11-30T03:21:43.582Z,8.80
2023-11-30T03:24:10.616Z,7.70
2023-11-30T03:26:39.136Z,7.53
2023-11-30T03:29:07.172Z,7.53
2023-11-30T03:31:37.635Z,7.90
2023-11-30T03:34:07.500Z,7.53
2023-11-30T03:36:35.873Z,7.83
2023-11-30T03:39:05.763Z,7.97
2023-11-30T03:41:36.354Z,7.85
2023-11-30T03:44:07.694Z,7.80
2023-11-30T03:46:37.096Z,8.00
2023-11-30T03:49:07.164Z,6.83
2023-11-30T03:51:34.977Z,6.75
2023-11-30T03:54:02.266Z,11.00
2023-11-30T03:56:33.776Z,9.40
2023-11-30T03:59:01.875Z,8.77
2023-11-30T04:01:29.949Z,7.80
2023-11-30T04:03:58.628Z,7.83
2023-11-30T04:06:28.527Z,7.40
2023-11-30T04:08:56.554Z,7.25
2023-11-30T04:11:23.345Z,6.87
2023-11-30T04:13:51.408Z,7.13
2023-11-30T04:16:19.043Z,7.30
2023-11-30T04:18:47.077Z,6.60
2023-11-30T04:21:14.872Z,6.50
2023-11-30T04:23:42.993Z,6.97
2023-11-30T04:26:09.905Z,6.60
2023-11-30T04:28:37.819Z,6.87
2023-11-30T04:31:08.662Z,7.20
2023-11-30T04:33:39.164Z,7.90
2023-11-30T04:36:07.594Z,8.32
2023-11-30T04:38:38.516Z,9.33
2023-11-30T04:41:06.996Z,9.00
2023-11-30T04:43:37.651Z,8.53
2023-11-30T04:46:07.013Z,8.57
2023-11-30T04:48:36.857Z,7.87
2023-11-30T04:53:35.297Z,8.23
2023-11-30T04:56:04.924Z,8.57
2023-11-30T04:58:33.296Z,8.32
2023-11-30T05:01:03.671Z,9.30
2023-11-30T05:03:32.634Z,7.80
2023-11-30T05:06:01.082Z,7.40
2023-11-30T05:08:27.979Z,7.43
2023-11-30T05:10:56.188Z,7.33
2023-11-30T05:13:24.051Z,7.37
2023-11-30T05:15:52.041Z,7.77
2023-11-30T05:18:19.509Z,7.90
2023-11-30T05:20:47.905Z,7.63
2023-11-30T05:23:14.881Z,8.17
2023-11-30T05:25:43.599Z,8.97
2023-11-30T05:28:10.353Z,10.30
2023-11-30T05:30:38.584Z,10.90
2023-11-30T05:33:05.656Z,10.27
2023-11-30T05:35:36.105Z,7.67
2023-11-30T05:38:05.569Z,9.45
2023-11-30T05:40:35.067Z,6.67
2023-11-30T05:43:03.001Z,6.90
2023-11-30T05:45:31.021Z,7.03
2023-11-30T05:47:59.157Z,6.13
2023-11-30T05:50:26.342Z,6.33
2023-11-30T05:52:54.309Z,6.60
2023-11-30T05:55:24.871Z,6.67
2023-11-30T06:00:22.266Z,7.83
2023-11-30T06:02:50.294Z,9.02
2023-11-30T06:05:17.898Z,8.43
2023-11-30T06:07:46.308Z,7.83
2023-11-30T06:10:17.667Z,8.87
2023-11-30T06:12:46.066Z,9.83
2023-11-30T06:15:13.102Z,8.87
2023-11-30T06:17:43.549Z,9.00
2023-11-30T06:20:11.877Z,9.68
2023-11-30T06:22:44.380Z,10.60
2023-11-30T06:25:11.542Z,11.13
2023-11-30T06:27:39.493Z,12.03
2023-11-30T06:30:07.255Z,10.70
2023-11-30T06:32:35.589Z,10.90
2023-11-30T06:35:05.296Z,12.80
2023-11-30T06:37:34.745Z,12.48
2023-11-30T06:40:05.302Z,10.73
2023-11-30T06:45:02.436Z,9.83
2023-11-30T06:47:30.891Z,12.80
2023-11-30T06:49:59.193Z,9.53
2023-11-30T06:52:26.542Z,8.90
2023-11-30T06:54:54.890Z,12.20
2023-11-30T06:57:23.124Z,10.73
2023-11-30T06:59:52.816Z,8.63
2023-11-30T07:02:19.759Z,7.78
2023-11-30T07:04:48.722Z,8.63
2023-11-30T07:07:24.175Z,10.30
2023-11-30T07:10:00.275Z,9.13
2023-11-30T07:12:28.399Z,8.80
2023-11-30T07:14:59.006Z,9.63
2023-11-30T07:17:27.754Z,10.77
2023-11-30T07:19:59.038Z,11.93
2023-11-30T07:22:26.498Z,15.03
2023-11-30T07:24:54.909Z,10.20
2023-11-30T07:27:24.855Z,12.83
2023-11-30T07:29:54.956Z,14.05
2023-11-30T07:32:21.742Z,14.15
2023-11-30T07:34:52.141Z,17.87
2023-11-30T07:37:19.444Z,13.13
2023-11-30T07:39:48.947Z,12.87
2023-11-30T07:42:26.417Z,15.82
2023-11-30T07:45:03.718Z,11.67
2023-11-30T07:47:32.179Z,9.70
2023-11-30T07:49:59.190Z,9.13
2023-11-30T07:52:28.754Z,8.93
2023-11-30T07:54:57.040Z,9.77
2023-11-30T07:57:24.262Z,10.57
2023-11-30T07:59:52.643Z,12.53
2023-11-30T08:02:19.915Z,7.40
2023-11-30T08:04:48.445Z,7.40
2023-11-30T08:07:15.383Z,7.47
2023-11-30T08:09:43.441Z,7.23
2023-11-30T08:12:10.338Z,7.23
2023-11-30T08:14:38.445Z,6.93
2023-11-30T08:17:09.225Z,8.03
2023-11-30T08:19:37.219Z,7.73
2023-11-30T08:22:07.928Z,7.87
2023-11-30T08:24:36.100Z,8.90
2023-11-30T08:27:04.441Z,8.77
2023-11-30T08:29:34.922Z,7.60
2023-11-30T08:32:05.378Z,8.00
2023-11-30T08:34:33.323Z,7.90
2023-11-30T08:37:01.522Z,7.90
2023-11-30T08:39:30.299Z,6.20
2023-11-30T08:42:00.632Z,7.27
2023-11-30T08:44:28.687Z,9.97
2023-11-30T08:46:56.543Z,9.30
2023-11-30T08:49:24.021Z,7.33
2023-11-30T08:52:02.566Z,7.03
2023-11-30T08:54:32.949Z,6.87
2023-11-30T08:57:00.479Z,6.60
2023-11-30T08:59:27.657Z,7.03
2023-11-30T09:02:03.164Z,7.50
2023-11-30T09:04:31.366Z,7.00
2023-11-30T09:07:08.710Z,7.67
2023-11-30T09:09:42.008Z,7.20
2023-11-30T09:12:15.300Z,7.93
2023-11-30T09:14:42.212Z,8.00
2023-11-30T09:17:14.041Z,8.60
2023-11-30T09:19:44.300Z,8.47
2023-11-30T09:24:41.628Z,8.67
2023-11-30T09:27:10.750Z,8.90
2023-11-30T09:29:48.289Z,9.23
2023-11-30T09:32:19.508Z,9.00
2023-11-30T09:34:48.972Z,8.70
2023-11-30T09:37:16.143Z,9.30
2023-11-30T09:39:45.180Z,8.90
2023-11-30T09:42:17.454Z,9.03
2023-11-30T09:44:46.157Z,9.53
2023-11-30T09:47:13.469Z,10.23
2023-11-30T09:49:41.519Z,9.50
2023-11-30T09:52:09.472Z,9.47
2023-11-30T09:54:45.935Z,8.33
2023-11-30T09:57:13.077Z,8.33
2023-11-30T09:59:42.824Z,9.63
2023-11-30T10:02:13.345Z,9.48
2023-11-30T10:04:44.518Z,8.97
2023-11-30T10:07:12.585Z,8.60
2023-11-30T10:09:40.068Z,8.70
2023-11-30T10:12:10.551Z,8.33
2023-11-30T10:17:14.512Z,9.03
2023-11-30T10:19:43.223Z,8.60
2023-11-30T10:22:11.521Z,8.10
2023-11-30T10:24:39.655Z,8.23
2023-11-30T10:27:11.898Z,8.60
2023-11-30T10:29:43.390Z,8.37
2023-11-30T10:32:14.826Z,7.97
2023-11-30T10:34:50.386Z,8.13
2023-11-30T10:37:25.341Z,7.47
2023-11-30T10:39:59.686Z,7.33
2023-11-30T10:42:26.836Z,8.20
2023-11-30T10:45:05.223Z,7.37
2023-11-30T10:47:33.904Z,6.80
2023-11-30T10:50:02.782Z,6.93
2023-11-30T10:52:30.126Z,6.97
2023-11-30T10:55:11.937Z,6.53
2023-11-30T10:57:47.956Z,6.63
2023-11-30T11:00:16.863Z,7.20
2023-11-30T11:02:49.299Z,6.90
2023-11-30T11:05:20.314Z,6.37
2023-11-30T11:07:53.573Z,6.17
2023-11-30T11:10:28.349Z,6.07
2023-11-30T11:13:03.706Z,5.80
2023-11-30T11:15:33.378Z,6.23
2023-11-30T11:18:05.522Z,5.60
2023-11-30T11:20:36.362Z,5.53
2023-11-30T11:23:10.258Z,5.63
2023-11-30T11:25:48.291Z,5.47
2023-11-30T11:28:18.306Z,5.17
2023-11-30T11:30:48.947Z,5.38
2023-11-30T11:33:18.088Z,6.20
2023-11-30T11:35:47.713Z,4.97
2023-11-30T11:38:15.088Z,5.95
2023-11-30T11:40:45.615Z,5.80
2023-11-30T11:43:12.510Z,6.20
2023-11-30T11:45:45.067Z,6.40
2023-11-30T11:48:15.803Z,6.73
2023-11-30T11:50:43.905Z,5.50
2023-11-30T11:53:10.796Z,6.10
2023-11-30T11:55:38.693Z,6.13
2023-11-30T11:58:08.919Z,6.30
2023-11-30T12:03:09.410Z,7.07
2023-11-30T12:05:54.007Z,7.43
2023-11-30T12:08:36.741Z,6.27
2023-11-30T12:11:06.161Z,5.90
2023-11-30T12:13:39.059Z,5.82
2023-11-30T12:16:08.717Z,8.80
2023-11-30T12:18:36.855Z,7.60
2023-11-30T12:21:04.876Z,7.40
2023-11-30T12:23:32.932Z,6.30
2023-11-30T12:26:00.999Z,6.37
2023-11-30T12:28:30.790Z,6.10
2023-11-30T12:31:00.982Z,5.68
2023-11-30T12:35:59.882Z,7.00
2023-11-30T12:38:29.718Z,7.10
2023-11-30T12:40:58.387Z,6.80
2023-11-30T12:43:32.386Z,6.47
2023-11-30T12:46:00.898Z,6.43
2023-11-30T12:48:31.659Z,5.63
2023-11-30T12:50:59.842Z,6.20
2023-11-30T12:53:27.947Z,7.10
2023-11-30T12:55:57.874Z,7.40
2023-11-30T12:58:27.698Z,7.45
2023-11-30T13:00:55.360Z,6.85
2023-11-30T13:03:22.236Z,6.73
2023-11-30T13:06:00.214Z,5.70
2023-11-30T13:08:27.063Z,6.23
2023-11-30T13:10:57.989Z,5.70
2023-11-30T13:13:34.176Z,6.47
2023-11-30T13:16:09.201Z,7.07
2023-11-30T13:18:38.331Z,8.00
2023-11-30T13:21:07.817Z,7.57
2023-11-30T13:23:35.040Z,6.70
2023-11-30T13:26:01.893Z,7.47
2023-11-30T13:28:37.945Z,9.30
2023-11-30T13:31:10.498Z,7.00
2023-11-30T13:33:39.109Z,11.77
2023-11-30T13:36:10.240Z,9.93
2023-11-30T13:38:38.069Z,9.23
2023-11-30T13:41:09.438Z,7.70
2023-11-30T13:43:39.215Z,8.23
2023-11-30T13:46:07.388Z,8.80
2023-11-30T13:48:35.219Z,9.10
2023-11-30T13:51:10.619Z,7.93
2023-11-30T13:53:48.824Z,8.30
2023-11-30T13:56:19.784Z,8.37
2023-11-30T13:58:47.746Z,8.23
2023-11-30T14:01:14.884Z,7.57
2023-11-30T14:03:45.374Z,9.83
2023-11-30T14:06:13.720Z,9.83
2023-11-30T14:08:42.222Z,9.43
2023-11-30T14:11:13.399Z,13.27
2023-11-30T14:13:47.972Z,13.07
2023-11-30T14:16:16.129Z,15.37
2023-11-30T14:18:44.407Z,10.43
2023-11-30T14:21:11.396Z,9.70
2023-11-30T14:23:39.655Z,6.40
2023-11-30T14:26:07.144Z,6.07
2023-11-30T14:28:36.725Z,8.77
2023-11-30T14:31:05.141Z,8.23
2023-11-30T14:33:33.161Z,11.13
2023-11-30T14:36:01.554Z,9.77
2023-11-30T14:38:59.354Z,9.00
2023-11-30T14:41:27.802Z,8.50
2023-11-30T14:43:56.504Z,7.60
2023-11-30T14:46:25.052Z,8.70
2023-11-30T14:48:52.792Z,7.77
2023-11-30T14:51:20.820Z,9.17
2023-11-30T14:53:49.099Z,15.70
2023-11-30T14:56:19.356Z,21.50
2023-11-30T14:58:47.557Z,24.02
2023-11-30T15:01:16.144Z,21.03
2023-11-30T15:03:44.944Z,17.23
2023-11-30T15:06:15.464Z,19.80
2023-11-30T15:08:44.731Z,52.95
2023-11-30T15:11:15.296Z,52.40
2023-11-30T15:16:15.133Z,17.38
2023-11-30T15:18:43.505Z,16.53
2023-11-30T15:21:11.805Z,15.70
2023-11-30T15:23:40.009Z,31.93
2023-11-30T15:26:08.244Z,23.63
2023-11-30T15:28:36.557Z,47.87
2023-11-30T15:31:04.985Z,48.67
2023-11-30T15:33:33.192Z,17.00
2023-11-30T15:36:09.874Z,8.97
2023-11-30T15:38:40.205Z,11.60
2023-11-30T15:41:09.894Z,14.35
2023-11-30T15:43:38.891Z,13.83
2023-11-30T15:46:09.298Z,13.67
2023-11-30T15:48:37.736Z,15.75
2023-11-30T15:51:05.129Z,22.53
2023-11-30T15:56:05.697Z,24.07
2023-11-30T15:58:33.690Z,30.47
2023-11-30T16:01:01.900Z,27.80
2023-11-30T16:03:30.521Z,25.10
2023-11-30T16:05:58.678Z,28.37
2023-11-30T16:08:28.043Z,26.33
2023-11-30T16:10:57.455Z,20.33
2023-11-30T16:13:27.500Z,17.27
2023-11-30T16:15:57.811Z,28.52
2023-11-30T16:18:28.028Z,14.65
2023-11-30T16:20:55.885Z,24.20
2023-11-30T16:23:23.216Z,15.07
2023-11-30T16:25:51.060Z,10.80
2023-11-30T16:28:20.709Z,11.80
2023-11-30T16:30:50.458Z,12.60
2023-11-30T16:33:19.733Z,13.25
2023-11-30T16:35:50.918Z,10.83
2023-11-30T16:38:20.255Z,13.63
2023-11-30T16:40:50.484Z,19.87
2023-11-30T16:43:21.052Z,27.63
2023-11-30T16:45:48.437Z,46.42
2023-11-30T16:48:26.463Z,25.23
2023-11-30T16:50:59.098Z,27.37
2023-11-30T16:53:29.809Z,21.90
2023-11-30T16:56:12.183Z,21.40
2023-11-30T16:58:39.948Z,22.10
2023-11-30T17:01:09.473Z,17.97
2023-11-30T17:03:38.076Z,11.17
2023-11-30T17:06:06.474Z,11.57
2023-11-30T17:08:37.278Z,10.67
2023-11-30T17:11:05.755Z,12.80
2023-11-30T17:13:34.027Z,11.60
2023-11-30T17:16:02.563Z,10.77
2023-11-30T17:18:35.598Z,14.87
2023-11-30T17:21:05.348Z,21.23
2023-11-30T17:23:33.927Z,17.50
2023-11-30T17:26:02.927Z,7.63
2023-11-30T17:28:32.234Z,8.07
2023-11-30T17:31:03.427Z,8.30
2023-11-30T17:33:31.782Z,9.00
2023-11-30T17:35:59.787Z,7.93
2023-11-30T17:38:30.104Z,8.30
2023-11-30T17:40:58.580Z,7.18
2023-11-30T17:43:28.869Z,7.60
2023-11-30T17:45:58.241Z,9.13
2023-11-30T17:48:28.457Z,8.20
2023-11-30T17:50:59.809Z,7.60
2023-11-30T17:53:30.349Z,9.00
2023-11-30T17:55:58.481Z,7.65
2023-11-30T17:58:30.544Z,8.17
2023-11-30T18:00:58.548Z,10.47
2023-11-30T18:03:27.933Z,9.77
2023-11-30T18:05:58.965Z,11.90
2023-11-30T18:08:34.869Z,11.93
2023-11-30T18:11:05.639Z,11.17
2023-11-30T18:16:06.472Z,9.17
2023-11-30T18:18:35.076Z,9.73
2023-11-30T18:21:03.803Z,10.97
2023-11-30T18:23:32.046Z,12.43
2023-11-30T18:25:59.075Z,12.60
2023-11-30T18:28:25.947Z,14.63
2023-11-30T18:31:01.769Z,14.97
2023-11-30T18:33:40.058Z,11.60
2023-11-30T18:36:09.196Z,13.57
2023-11-30T18:38:44.042Z,19.00
2023-11-30T18:41:18.318Z,25.00
2023-11-30T18:43:48.635Z,20.87
2023-11-30T18:46:16.826Z,23.05
2023-11-30T18:48:44.877Z,20.77
2023-11-30T18:51:17.667Z,23.43
2023-11-30T18:53:45.924Z,22.37
2023-11-30T18:56:14.123Z,22.57
2023-11-30T18:58:45.685Z,22.17
2023-11-30T19:01:16.893Z,23.17
2023-11-30T19:03:45.030Z,23.03
2023-11-30T19:06:20.802Z,22.83
2023-11-30T19:08:50.224Z,24.57
2023-11-30T19:11:19.030Z,22.43
2023-11-30T19:13:45.860Z,25.13
2023-11-30T19:16:18.337Z,25.43
2023-11-30T19:18:46.113Z,28.20
2023-11-30T19:21:14.416Z,30.83
2023-11-30T19:23:45.094Z,32.87
2023-11-30T19:26:13.970Z,35.42
2023-11-30T19:28:44.372Z,35.20
2023-11-30T19:31:12.632Z,35.88
2023-11-30T19:33:40.893Z,28.27
2023-11-30T19:36:09.985Z,23.33
2023-11-30T19:38:37.772Z,23.57
2023-11-30T19:41:06.116Z,21.80
2023-11-30T19:43:34.249Z,20.73
2023-11-30T19:46:03.629Z,22.00
2023-11-30T19:48:35.223Z,21.42
2023-11-30T19:51:03.453Z,20.63
2023-11-30T19:53:34.538Z,19.50
2023-11-30T19:56:05.011Z,20.57
2023-11-30T19:58:42.446Z,21.25
2023-11-30T20:01:11.105Z,22.20
2023-11-30T20:03:40.072Z,22.40
2023-11-30T20:06:18.282Z,20.53
2023-11-30T20:08:46.281Z,21.20
2023-11-30T20:11:25.592Z,21.63
2023-11-30T20:13:56.469Z,21.23
2023-11-30T20:16:24.555Z,22.00
2023-11-30T20:18:52.811Z,19.53
2023-11-30T20:21:22.885Z,20.67
2023-11-30T20:23:51.296Z,19.30
2023-11-30T20:26:19.633Z,21.03
2023-11-30T20:28:48.543Z,21.27
2023-11-30T20:31:16.697Z,20.10
2023-11-30T20:33:51.653Z,19.77
2023-11-30T20:36:19.627Z,20.27
2023-11-30T20:38:47.869Z,20.47
2023-11-30T20:41:15.870Z,20.20
2023-11-30T20:43:44.590Z,19.30
2023-11-30T20:46:21.873Z,19.77
2023-11-30T20:48:50.306Z,19.97
2023-11-30T20:51:27.127Z,19.73
2023-11-30T20:53:55.856Z,18.87
2023-11-30T20:56:24.166Z,19.67
2023-11-30T20:58:52.586Z,20.10
2023-11-30T21:01:20.702Z,20.73
2023-11-30T21:03:48.837Z,20.20
2023-11-30T21:06:17.014Z,18.97
2023-11-30T21:08:47.894Z,19.73
2023-11-30T21:13:44.006Z,18.47
2023-11-30T21:16:19.914Z,20.97
2023-11-30T21:18:51.556Z,21.17
2023-11-30T21:21:19.690Z,21.23
2023-11-30T21:23:47.977Z,20.97
2023-11-30T21:26:16.066Z,21.47
2023-11-30T21:28:42.897Z,24.83
2023-11-30T21:31:10.931Z,22.87
2023-11-30T21:33:38.039Z,24.07
2023-11-30T21:36:06.894Z,23.43
2023-11-30T21:38:36.049Z,25.53
2023-11-30T21:41:04.113Z,24.40
2023-11-30T21:43:32.265Z,25.90
2023-11-30T21:46:00.335Z,25.13
2023-11-30T21:48:28.605Z,27.90
2023-11-30T21:50:56.154Z,27.00
2023-11-30T21:53:24.118Z,26.53
2023-11-30T21:55:52.339Z,26.50
2023-11-30T21:58:28.789Z,25.47
2023-11-30T22:00:58.365Z,25.87
2023-11-30T22:03:36.367Z,23.73
2023-11-30T22:06:04.793Z,24.47
2023-11-30T22:08:34.484Z,25.37
2023-11-30T22:11:02.814Z,25.70
2023-11-30T22:13:30.784Z,25.50
2023-11-30T22:16:06.834Z,26.20
2023-11-30T22:18:39.301Z,24.80
2023-11-30T22:21:07.912Z,26.37
2023-11-30T22:23:35.653Z,27.27
2023-11-30T22:26:06.288Z,29.63
2023-11-30T22:28:34.375Z,26.85
2023-11-30T22:31:02.838Z,28.53
2023-11-30T22:33:31.100Z,28.70
2023-11-30T22:35:59.260Z,29.43
2023-11-30T22:38:31.142Z,27.47
2023-11-30T22:41:03.721Z,27.90
2023-11-30T22:43:32.049Z,28.10
2023-11-30T22:45:59.982Z,29.37
2023-11-30T22:48:29.302Z,27.57
2023-11-30T22:50:57.571Z,28.83
2023-11-30T22:53:26.632Z,28.90
2023-11-30T22:55:55.117Z,27.20
2023-11-30T22:58:24.669Z,27.33
2023-11-30T23:00:55.132Z,27.43
2023-11-30T23:03:24.034Z,27.83
2023-11-30T23:05:52.137Z,26.77
2023-11-30T23:08:20.291Z,28.23
2023-11-30T23:10:48.954Z,29.40
2023-11-30T23:13:19.436Z,27.97
2023-11-30T23:15:46.373Z,28.83
2023-11-30T23:18:15.098Z,27.80
2023-11-30T23:20:41.897Z,27.63
2023-11-30T23:23:11.006Z,29.47
2023-11-30T23:25:37.828Z,28.07
2023-11-30T23:28:06.421Z,29.00
2023-11-30T23:30:34.637Z,28.90
2023-11-30T23:33:01.684Z,28.63
2023-11-30T23:35:29.713Z,26.90
2023-11-30T23:37:59.116Z,29.63
2023-11-30T23:40:27.503Z,29.23
2023-11-30T23:42:58.701Z,29.73
2023-11-30T23:45:29.671Z,32.63
2023-11-30T23:47:57.881Z,34.23
2023-11-30T23:50:26.378Z,31.30
2023-11-30T23:52:54.449Z,32.57
2023-11-30T23:55:22.903Z,32.20
2023-11-30T23:57:49.795Z,33.27
